createdAt,value
2023-09-06T00:00:35.113Z,6.10
2023-09-06T00:03:03.278Z,6.00
2023-09-06T00:05:31.362Z,5.93
2023-09-06T00:07:59.463Z,6.18
2023-09-06T00:10:29.065Z,6.90
2023-09-06T00:12:57.276Z,6.40
2023-09-06T00:15:25.725Z,5.95
2023-09-06T00:17:53.985Z,5.90
2023-09-06T00:20:22.223Z,6.60
2023-09-06T00:22:56.823Z,5.95
2023-09-06T00:25:25.032Z,6.68
2023-09-06T00:27:54.558Z,6.22
2023-09-06T00:30:22.613Z,5.95
2023-09-06T00:32:54.227Z,6.97
2023-09-06T00:35:23.675Z,6.55
2023-09-06T00:37:51.722Z,6.60
2023-09-06T00:40:19.675Z,6.35
2023-09-06T00:42:48.556Z,6.55
2023-09-06T00:45:20.761Z,6.45
2023-09-06T00:47:48.773Z,7.10
2023-09-06T00:50:17.406Z,7.45
2023-09-06T00:52:45.432Z,6.80
2023-09-06T00:55:13.714Z,6.82
2023-09-06T00:57:42.054Z,6.57
2023-09-06T01:00:15.773Z,7.53
2023-09-06T01:02:45.491Z,6.72
2023-09-06T01:05:13.994Z,6.88
2023-09-06T01:07:41.945Z,6.90
2023-09-06T01:10:10.199Z,6.45
2023-09-06T01:12:38.189Z,6.78
2023-09-06T01:15:07.053Z,6.70
2023-09-06T01:17:37.917Z,6.50
2023-09-06T01:20:16.599Z,6.70
2023-09-06T01:22:48.021Z,6.90
2023-09-06T01:25:18.173Z,6.30
2023-09-06T01:27:46.530Z,6.18
2023-09-06T01:30:14.657Z,6.85
2023-09-06T01:32:43.145Z,6.80
2023-09-06T01:35:11.951Z,6.47
2023-09-06T01:37:39.916Z,6.70
2023-09-06T01:40:19.091Z,7.00
2023-09-06T01:42:48.628Z,7.18
2023-09-06T01:45:18.691Z,7.10
2023-09-06T01:47:48.258Z,6.20
2023-09-06T01:50:20.379Z,6.93
2023-09-06T01:52:48.566Z,6.97
2023-09-06T01:55:16.928Z,6.50
2023-09-06T01:57:45.139Z,6.78
2023-09-06T02:00:23.562Z,7.03
2023-09-06T02:02:51.803Z,7.10
2023-09-06T02:05:19.850Z,6.85
2023-09-06T02:07:48.244Z,7.38
2023-09-06T02:10:16.435Z,6.60
2023-09-06T02:12:44.630Z,6.80
2023-09-06T02:15:15.687Z,7.18
2023-09-06T02:17:44.533Z,6.68
2023-09-06T02:20:18.311Z,6.57
2023-09-06T02:22:48.280Z,6.70
2023-09-06T02:25:16.984Z,6.95
2023-09-06T02:27:45.096Z,6.85
2023-09-06T02:30:14.760Z,6.60
2023-09-06T02:32:42.732Z,7.20
2023-09-06T02:35:11.100Z,6.90
2023-09-06T02:37:39.093Z,7.50
2023-09-06T02:40:11.981Z,7.00
2023-09-06T02:42:40.095Z,6.53
2023-09-06T02:45:10.871Z,6.47
2023-09-06T02:47:49.488Z,6.70
2023-09-06T02:50:18.097Z,6.53
2023-09-06T02:52:47.238Z,6.93
2023-09-06T02:55:18.044Z,7.00
2023-09-06T02:57:46.163Z,7.00
2023-09-06T03:00:25.835Z,6.72
2023-09-06T03:02:56.724Z,6.75
2023-09-06T03:05:24.689Z,7.22
2023-09-06T03:07:55.067Z,6.68
2023-09-06T03:10:24.484Z,6.72
2023-09-06T03:12:56.457Z,6.70
2023-09-06T03:15:25.106Z,6.80
2023-09-06T03:17:54.558Z,7.03
2023-09-06T03:20:33.237Z,7.20
2023-09-06T03:23:02.342Z,7.47
2023-09-06T03:25:30.467Z,7.20
2023-09-06T03:28:01.552Z,7.32
2023-09-06T03:30:31.409Z,7.70
2023-09-06T03:32:59.720Z,7.45
2023-09-06T03:35:29.209Z,7.82
2023-09-06T03:37:57.352Z,7.80
2023-09-06T03:40:36.377Z,7.65
2023-09-06T03:43:15.970Z,7.68
2023-09-06T03:45:45.817Z,7.90
2023-09-06T03:48:14.639Z,7.32
2023-09-06T03:50:45.058Z,7.43
2023-09-06T03:53:15.862Z,7.60
2023-09-06T03:55:44.270Z,6.97
2023-09-06T03:58:12.375Z,8.00
2023-09-06T04:00:44.359Z,6.75
2023-09-06T04:03:14.610Z,7.07
2023-09-06T04:05:45.625Z,7.93
2023-09-06T04:08:19.107Z,7.10
2023-09-06T04:10:47.398Z,7.10
2023-09-06T04:13:15.969Z,7.43
2023-09-06T04:15:44.863Z,7.55
2023-09-06T04:18:13.464Z,7.47
2023-09-06T04:20:46.282Z,6.75
2023-09-06T04:23:15.801Z,7.30
2023-09-06T04:25:44.569Z,7.70
2023-09-06T04:28:12.871Z,7.75
2023-09-06T04:30:42.020Z,7.45
2023-09-06T04:33:11.590Z,7.80
2023-09-06T04:35:40.163Z,7.25
2023-09-06T04:38:10.852Z,7.32
2023-09-06T04:40:40.370Z,7.13
2023-09-06T04:43:08.847Z,7.43
2023-09-06T04:45:38.616Z,7.68
2023-09-06T04:48:07.379Z,7.90
2023-09-06T04:50:35.445Z,8.20
2023-09-06T04:53:03.540Z,8.50
2023-09-06T04:55:35.050Z,8.37
2023-09-06T04:58:04.681Z,8.10
2023-09-06T05:00:34.220Z,7.53
2023-09-06T05:03:02.870Z,8.13
2023-09-06T05:05:31.572Z,7.73
2023-09-06T05:07:59.628Z,7.80
2023-09-06T05:10:27.582Z,8.17
2023-09-06T05:12:55.505Z,8.55
2023-09-06T05:15:24.851Z,8.23
2023-09-06T05:17:52.822Z,7.80
2023-09-06T05:20:28.837Z,8.10
2023-09-06T05:22:57.189Z,8.70
2023-09-06T05:25:25.261Z,8.68
2023-09-06T05:27:56.148Z,8.30
2023-09-06T05:30:25.539Z,8.75
2023-09-06T05:32:53.692Z,8.57
2023-09-06T05:35:21.693Z,8.57
2023-09-06T05:37:50.188Z,9.15
2023-09-06T05:40:23.669Z,8.87
2023-09-06T05:42:52.013Z,8.88
2023-09-06T05:45:20.429Z,8.80
2023-09-06T05:47:49.831Z,9.27
2023-09-06T05:50:18.036Z,8.63
2023-09-06T05:52:46.058Z,9.05
2023-09-06T05:55:14.016Z,9.25
2023-09-06T05:57:42.001Z,9.32
2023-09-06T06:00:17.046Z,8.07
2023-09-06T06:02:46.187Z,7.85
2023-09-06T06:05:16.337Z,8.77
2023-09-06T06:07:44.417Z,8.25
2023-09-06T06:10:12.388Z,8.35
2023-09-06T06:12:40.610Z,8.37
2023-09-06T06:15:10.696Z,8.15
2023-09-06T06:17:38.785Z,8.73
2023-09-06T06:20:08.868Z,8.35
2023-09-06T06:22:39.381Z,7.82
2023-09-06T06:25:08.447Z,8.10
2023-09-06T06:27:36.588Z,8.47
2023-09-06T06:30:06.920Z,8.25
2023-09-06T06:32:35.212Z,7.90
2023-09-06T06:35:07.409Z,8.07
2023-09-06T06:37:35.689Z,7.72
2023-09-06T06:40:06.443Z,8.48
2023-09-06T06:42:34.637Z,8.32
2023-09-06T06:45:03.220Z,9.00
2023-09-06T06:47:31.290Z,8.02
2023-09-06T06:50:04.488Z,7.70
2023-09-06T06:52:34.560Z,8.55
2023-09-06T06:55:05.186Z,8.55
2023-09-06T06:57:34.558Z,7.85
2023-09-06T07:00:05.154Z,7.72
2023-09-06T07:02:33.260Z,7.38
2023-09-06T07:05:01.318Z,7.78
2023-09-06T07:07:29.285Z,7.82
2023-09-06T07:09:57.338Z,8.63
2023-09-06T07:12:26.702Z,8.43
2023-09-06T07:14:55.341Z,7.32
2023-09-06T07:17:23.541Z,7.63
2023-09-06T07:19:51.897Z,7.45
2023-09-06T07:22:21.459Z,7.53
2023-09-06T07:24:49.627Z,7.68
2023-09-06T07:27:17.586Z,7.53
2023-09-06T07:29:46.991Z,7.45
2023-09-06T07:32:15.053Z,7.80
2023-09-06T07:34:43.057Z,7.25
2023-09-06T07:37:15.112Z,7.85
2023-09-06T07:39:43.126Z,7.72
2023-09-06T07:42:13.661Z,7.95
2023-09-06T07:44:41.706Z,7.97
2023-09-06T07:47:11.233Z,7.57
2023-09-06T07:49:39.504Z,7.95
2023-09-06T07:52:09.704Z,7.20
2023-09-06T07:54:37.761Z,7.75
2023-09-06T07:57:06.332Z,7.28
2023-09-06T07:59:34.505Z,6.78
2023-09-06T08:02:02.641Z,7.32
2023-09-06T08:04:32.037Z,6.90
2023-09-06T08:07:00.099Z,7.20
2023-09-06T08:09:28.609Z,7.00
2023-09-06T08:11:57.510Z,7.30
2023-09-06T08:14:28.896Z,6.85
2023-09-06T08:16:56.892Z,7.05
2023-09-06T08:19:24.903Z,8.13
2023-09-06T08:21:56.764Z,7.20
2023-09-06T08:24:25.923Z,7.25
2023-09-06T08:26:54.092Z,7.57
2023-09-06T08:29:22.046Z,7.13
2023-09-06T08:31:50.152Z,7.07
2023-09-06T08:34:18.211Z,7.00
2023-09-06T08:36:46.158Z,7.65
2023-09-06T08:39:15.790Z,7.65
2023-09-06T08:41:43.899Z,7.18
2023-09-06T08:44:12.507Z,6.78
2023-09-06T08:46:42.929Z,6.80
2023-09-06T08:49:11.938Z,6.75
2023-09-06T08:51:40.298Z,6.82
2023-09-06T08:54:08.612Z,7.25
2023-09-06T08:56:38.004Z,7.30
2023-09-06T08:59:07.514Z,6.55
2023-09-06T09:01:39.110Z,6.97
2023-09-06T09:04:08.106Z,7.90
2023-09-06T09:06:36.296Z,8.10
2023-09-06T09:09:17.562Z,6.97
2023-09-06T09:11:47.814Z,6.45
2023-09-06T09:14:22.511Z,7.28
2023-09-06T09:16:56.824Z,6.78
2023-09-06T09:19:24.994Z,7.15
2023-09-06T09:21:53.381Z,6.82
2023-09-06T09:24:28.197Z,7.18
2023-09-06T09:26:59.526Z,6.88
2023-09-06T09:29:27.895Z,6.25
2023-09-06T09:31:55.917Z,6.00
2023-09-06T09:34:24.049Z,6.20
2023-09-06T09:36:53.162Z,6.15
2023-09-06T09:39:21.387Z,6.20
2023-09-06T09:41:58.926Z,6.20
2023-09-06T09:44:29.064Z,6.00
2023-09-06T09:46:58.439Z,6.10
2023-09-06T09:49:27.015Z,5.45
2023-09-06T09:51:55.068Z,5.95
2023-09-06T09:54:23.422Z,5.38
2023-09-06T09:56:58.969Z,5.85
2023-09-06T09:59:28.391Z,5.07
2023-09-06T10:01:56.846Z,5.60
2023-09-06T10:04:28.447Z,5.20
2023-09-06T10:06:56.893Z,5.80
2023-09-06T10:09:25.026Z,4.88
2023-09-06T10:11:53.640Z,5.57
2023-09-06T10:14:23.936Z,6.43
2023-09-06T10:16:53.696Z,5.90
2023-09-06T10:19:22.036Z,6.20
2023-09-06T10:21:50.171Z,6.63
2023-09-06T10:24:19.314Z,5.28
2023-09-06T10:26:48.328Z,5.43
2023-09-06T10:29:19.884Z,5.80
2023-09-06T10:31:52.306Z,5.85
2023-09-06T10:34:24.372Z,5.65
2023-09-06T10:36:55.848Z,5.45
2023-09-06T10:39:24.433Z,4.97
2023-09-06T10:42:29.338Z,4.72
2023-09-06T10:45:13.216Z,5.57
2023-09-06T10:47:42.482Z,5.57
2023-09-06T10:50:21.076Z,4.85
2023-09-06T10:52:51.349Z,4.93
2023-09-06T10:55:22.021Z,5.25
2023-09-06T10:57:55.641Z,5.28
2023-09-06T11:00:26.875Z,5.20
2023-09-06T11:03:14.491Z,5.22
2023-09-06T11:05:44.860Z,5.07
2023-09-06T11:08:25.777Z,5.15
2023-09-06T11:10:55.057Z,5.03
2023-09-06T11:13:28.060Z,5.50
2023-09-06T11:15:56.470Z,5.20
2023-09-06T11:18:24.619Z,5.47
2023-09-06T11:20:54.191Z,4.43
2023-09-06T11:23:23.170Z,5.20
2023-09-06T11:25:58.627Z,4.47
2023-09-06T11:28:30.112Z,5.00
2023-09-06T11:30:59.942Z,4.47
2023-09-06T11:33:31.298Z,5.13
2023-09-06T11:36:04.365Z,5.10
2023-09-06T11:38:35.867Z,4.47
2023-09-06T11:41:06.717Z,5.15
2023-09-06T11:43:34.966Z,4.72
2023-09-06T11:46:06.717Z,4.70
2023-09-06T11:48:35.526Z,5.30
2023-09-06T11:51:09.802Z,4.97
2023-09-06T11:53:46.463Z,4.38
2023-09-06T11:56:18.506Z,4.70
2023-09-06T11:58:49.119Z,4.53
2023-09-06T12:01:21.401Z,4.80
2023-09-06T12:03:49.681Z,4.50
2023-09-06T12:06:19.265Z,4.57
2023-09-06T12:08:47.361Z,4.40
2023-09-06T12:11:21.615Z,4.70
2023-09-06T12:13:49.857Z,5.45
2023-09-06T12:16:18.166Z,4.78
2023-09-06T12:18:46.975Z,4.78
2023-09-06T12:21:16.605Z,4.93
2023-09-06T12:23:47.272Z,4.60
2023-09-06T12:26:18.324Z,5.40
2023-09-06T12:28:46.397Z,4.88
2023-09-06T12:31:17.940Z,5.20
2023-09-06T12:33:49.080Z,5.85
2023-09-06T12:36:18.522Z,5.40
2023-09-06T12:38:48.895Z,6.35
2023-09-06T12:41:17.018Z,5.38
2023-09-06T12:43:44.961Z,5.80
2023-09-06T12:46:13.944Z,5.20
2023-09-06T12:48:44.464Z,5.25
2023-09-06T12:51:12.952Z,5.05
2023-09-06T12:53:41.072Z,4.80
2023-09-06T12:56:15.412Z,4.40
2023-09-06T12:58:44.809Z,4.65
2023-09-06T13:01:15.754Z,4.85
2023-09-06T13:03:44.341Z,4.15
2023-09-06T13:06:12.476Z,4.82
2023-09-06T13:08:42.031Z,5.07
2023-09-06T13:11:14.137Z,5.43
2023-09-06T13:13:42.503Z,4.53
2023-09-06T13:16:10.701Z,4.25
2023-09-06T13:18:39.780Z,5.03
2023-09-06T13:21:09.792Z,4.50
2023-09-06T13:23:37.914Z,5.03
2023-09-06T13:26:05.866Z,4.75
2023-09-06T13:28:35.622Z,4.28
2023-09-06T13:31:04.868Z,4.40
2023-09-06T13:33:36.405Z,4.93
2023-09-06T13:36:07.037Z,4.05
2023-09-06T13:38:35.266Z,6.00
2023-09-06T13:41:03.685Z,4.30
2023-09-06T13:43:31.934Z,4.72
2023-09-06T13:46:02.499Z,5.15
2023-09-06T13:48:30.703Z,4.70
2023-09-06T13:50:59.065Z,4.30
2023-09-06T13:53:27.826Z,4.53
2023-09-06T13:55:56.978Z,4.05
2023-09-06T13:58:25.151Z,5.00
2023-09-06T14:00:56.981Z,4.90
2023-09-06T14:03:27.417Z,5.57
2023-09-06T14:05:55.535Z,6.57
2023-09-06T14:08:24.126Z,4.50
2023-09-06T14:10:53.652Z,5.72
2023-09-06T14:13:22.017Z,6.13
2023-09-06T14:15:50.105Z,4.90
2023-09-06T14:18:19.828Z,5.13
2023-09-06T14:20:49.750Z,4.75
2023-09-06T14:23:18.000Z,4.55
2023-09-06T14:25:46.093Z,4.50
2023-09-06T14:28:14.122Z,4.28
2023-09-06T14:30:42.264Z,4.32
2023-09-06T14:33:10.408Z,5.05
2023-09-06T14:35:39.868Z,4.82
2023-09-06T14:38:09.432Z,5.25
2023-09-06T14:40:40.525Z,4.13
2023-09-06T14:43:08.556Z,5.80
2023-09-06T14:45:36.520Z,4.22
2023-09-06T14:48:05.119Z,4.25
2023-09-06T14:50:33.590Z,4.22
2023-09-06T14:53:01.631Z,4.38
2023-09-06T14:55:31.889Z,4.82
2023-09-06T14:57:59.822Z,4.78
2023-09-06T15:00:28.025Z,4.78
2023-09-06T15:02:56.155Z,4.25
2023-09-06T15:05:24.244Z,4.82
2023-09-06T15:07:52.271Z,4.63
2023-09-06T15:10:20.365Z,4.55
2023-09-06T15:12:49.758Z,4.45
2023-09-06T15:15:18.695Z,4.30
2023-09-06T15:17:47.720Z,4.60
2023-09-06T15:20:15.887Z,4.20
2023-09-06T15:22:43.872Z,4.47
2023-09-06T15:25:12.484Z,4.18
2023-09-06T15:27:41.604Z,4.63
2023-09-06T15:30:11.311Z,4.22
2023-09-06T15:32:39.694Z,4.60
2023-09-06T15:35:09.408Z,4.25
2023-09-06T15:37:38.368Z,6.43
2023-09-06T15:40:07.623Z,5.55
2023-09-06T15:42:36.605Z,4.40
2023-09-06T15:45:09.582Z,5.78
2023-09-06T15:47:41.885Z,5.40
2023-09-06T15:50:11.587Z,4.10
2023-09-06T15:52:39.662Z,4.43
2023-09-06T15:55:08.954Z,4.55
2023-09-06T15:57:36.981Z,4.65
2023-09-06T16:00:24.423Z,4.50
2023-09-06T16:02:59.436Z,4.57
2023-09-06T16:05:27.867Z,4.65
2023-09-06T16:07:56.947Z,4.45
2023-09-06T16:10:26.173Z,4.55
2023-09-06T16:12:54.266Z,4.85
2023-09-06T16:15:24.032Z,5.13
2023-09-06T16:17:52.238Z,4.88
2023-09-06T16:20:21.663Z,4.82
2023-09-06T16:22:49.621Z,4.63
2023-09-06T16:25:17.628Z,5.22
2023-09-06T16:27:46.862Z,6.05
2023-09-06T16:30:15.256Z,4.75
2023-09-06T16:32:43.647Z,4.82
2023-09-06T16:35:12.298Z,4.93
2023-09-06T16:37:43.390Z,5.07
2023-09-06T16:40:14.438Z,5.00
2023-09-06T16:42:42.814Z,4.97
2023-09-06T16:45:11.537Z,4.80
2023-09-06T16:47:40.013Z,5.53
2023-09-06T16:50:08.936Z,5.35
2023-09-06T16:52:38.648Z,5.35
2023-09-06T16:55:11.200Z,4.95
2023-09-06T16:57:39.591Z,5.07
2023-09-06T17:00:09.904Z,5.07
2023-09-06T17:02:38.268Z,5.15
2023-09-06T17:05:07.007Z,6.63
2023-09-06T17:07:35.217Z,5.07
2023-09-06T17:10:09.724Z,4.38
2023-09-06T17:12:40.192Z,5.68
2023-09-06T17:15:15.596Z,5.97
2023-09-06T17:17:43.995Z,5.65
2023-09-06T17:20:13.190Z,6.03
2023-09-06T17:22:41.231Z,6.30
2023-09-06T17:25:10.589Z,6.07
2023-09-06T17:27:42.797Z,6.70
2023-09-06T17:30:20.376Z,6.80
2023-09-06T17:33:12.234Z,6.82
2023-09-06T17:35:40.637Z,7.15
2023-09-06T17:38:10.107Z,6.85
2023-09-06T17:40:39.501Z,7.65
2023-09-06T17:43:09.849Z,6.97
2023-09-06T17:45:38.344Z,8.18
2023-09-06T17:48:11.145Z,8.30
2023-09-06T17:50:42.283Z,7.40
2023-09-06T17:53:14.001Z,8.07
2023-09-06T17:55:42.387Z,8.20
2023-09-06T17:58:11.782Z,8.48
2023-09-06T18:00:39.849Z,8.90
2023-09-06T18:03:08.207Z,8.52
2023-09-06T18:05:39.100Z,9.13
2023-09-06T18:08:15.468Z,8.43
2023-09-06T18:10:44.330Z,8.88
2023-09-06T18:13:15.502Z,8.48
2023-09-06T18:15:43.765Z,8.75
2023-09-06T18:18:14.698Z,8.57
2023-09-06T18:20:42.875Z,9.65
2023-09-06T18:23:11.070Z,9.30
2023-09-06T18:25:41.218Z,9.00
2023-09-06T18:28:09.748Z,8.50
2023-09-06T18:30:39.344Z,8.45
2023-09-06T18:33:08.436Z,8.48
2023-09-06T18:35:36.526Z,9.10
2023-09-06T18:38:05.067Z,9.85
2023-09-06T18:40:33.498Z,9.95
2023-09-06T18:43:02.644Z,8.93
2023-09-06T18:45:31.814Z,9.52
2023-09-06T18:48:01.333Z,9.38
2023-09-06T18:50:32.918Z,8.57
2023-09-06T18:53:01.738Z,8.70
2023-09-06T18:55:29.997Z,8.93
2023-09-06T18:58:06.040Z,9.18
2023-09-06T19:00:35.975Z,8.43
2023-09-06T19:03:07.288Z,8.95
2023-09-06T19:05:36.526Z,10.23
2023-09-06T19:08:05.195Z,9.48
2023-09-06T19:10:34.593Z,8.85
2023-09-06T19:13:02.515Z,8.90
2023-09-06T19:15:30.729Z,9.15
2023-09-06T19:17:58.823Z,9.43
2023-09-06T19:20:28.331Z,9.82
2023-09-06T19:22:56.335Z,9.43
2023-09-06T19:25:26.777Z,8.63
2023-09-06T19:27:54.932Z,8.50
2023-09-06T19:30:22.954Z,8.27
2023-09-06T19:32:51.006Z,8.43
2023-09-06T19:35:19.127Z,8.35
2023-09-06T19:37:48.532Z,8.25
2023-09-06T19:40:16.652Z,9.05
2023-09-06T19:42:44.850Z,8.40
2023-09-06T19:45:12.765Z,9.02
2023-09-06T19:47:40.879Z,8.93
2023-09-06T19:50:09.790Z,8.60
2023-09-06T19:52:37.848Z,8.68
2023-09-06T19:55:08.907Z,8.50
2023-09-06T19:57:38.189Z,8.40
2023-09-06T20:00:11.575Z,8.60
2023-09-06T20:02:40.167Z,7.93
2023-09-06T20:05:09.335Z,8.18
2023-09-06T20:07:38.524Z,7.60
2023-09-06T20:10:09.591Z,8.00
2023-09-06T20:12:37.579Z,7.72
2023-09-06T20:15:07.024Z,7.95
2023-09-06T20:17:35.066Z,6.47
2023-09-06T20:20:05.565Z,6.78
2023-09-06T20:22:33.547Z,7.13
2023-09-06T20:25:01.615Z,6.85
2023-09-06T20:27:32.321Z,6.60
2023-09-06T20:30:00.469Z,5.88
2023-09-06T20:32:28.559Z,5.57
2023-09-06T20:34:57.920Z,5.45
2023-09-06T20:37:26.055Z,5.85
2023-09-06T20:39:54.402Z,6.20
2023-09-06T20:42:22.571Z,5.68
2023-09-06T20:44:51.965Z,6.38
2023-09-06T20:47:19.956Z,6.38
2023-09-06T20:49:48.679Z,5.60
2023-09-06T20:52:16.707Z,5.95
2023-09-06T20:54:44.730Z,6.50
2023-09-06T20:57:12.725Z,6.60
2023-09-06T20:59:40.718Z,6.90
2023-09-06T21:02:10.035Z,6.60
2023-09-06T21:04:38.485Z,6.38
2023-09-06T21:07:08.101Z,6.68
2023-09-06T21:09:36.097Z,6.57
2023-09-06T21:12:04.072Z,6.75
2023-09-06T21:14:32.145Z,6.45
2023-09-06T21:17:00.116Z,7.55
2023-09-06T21:19:30.166Z,7.30
2023-09-06T21:21:58.309Z,7.63
2023-09-06T21:24:27.921Z,7.22
2023-09-06T21:26:57.949Z,7.40
2023-09-06T21:29:28.646Z,7.60
2023-09-06T21:31:58.014Z,7.68
2023-09-06T21:34:26.071Z,7.45
2023-09-06T21:36:55.460Z,7.30
2023-09-06T21:39:25.099Z,7.72
2023-09-06T21:41:53.097Z,7.80
2023-09-06T21:44:21.045Z,8.02
2023-09-06T21:46:49.048Z,7.38
2023-09-06T21:49:17.117Z,7.55
2023-09-06T21:51:45.145Z,7.68
2023-09-06T21:54:14.601Z,8.45
2023-09-06T21:56:42.583Z,7.75
2023-09-06T21:59:11.561Z,7.93
2023-09-06T22:01:39.714Z,7.82
2023-09-06T22:04:07.876Z,7.72
2023-09-06T22:06:35.883Z,7.53
2023-09-06T22:09:04.861Z,7.60
2023-09-06T22:11:34.300Z,8.18
2023-09-06T22:14:02.254Z,8.32
2023-09-06T22:16:30.329Z,8.52
2023-09-06T22:18:58.684Z,8.13
2023-09-06T22:21:29.699Z,8.48
2023-09-06T22:23:58.908Z,8.10
2023-09-06T22:26:26.908Z,8.00
2023-09-06T22:28:56.347Z,8.10
2023-09-06T22:31:27.929Z,7.95
2023-09-06T22:33:56.640Z,7.78
2023-09-06T22:36:25.477Z,8.32
2023-09-06T22:38:53.689Z,8.15
2023-09-06T22:41:22.616Z,8.23
2023-09-06T22:43:50.597Z,8.05
2023-09-06T22:46:19.981Z,7.88
2023-09-06T22:48:54.095Z,8.02
2023-09-06T22:51:23.617Z,8.30
2023-09-06T22:53:51.640Z,8.60
2023-09-06T22:56:19.649Z,8.73
2023-09-06T22:58:47.608Z,8.43
2023-09-06T23:01:15.709Z,8.10
2023-09-06T23:03:45.490Z,7.88
2023-09-06T23:06:13.968Z,8.20
2023-09-06T23:08:45.309Z,8.50
2023-09-06T23:11:13.553Z,8.15
2023-09-06T23:13:41.539Z,8.00
2023-09-06T23:16:10.129Z,8.07
2023-09-06T23:18:44.233Z,8.05
2023-09-06T23:21:16.821Z,8.98
2023-09-06T23:23:46.752Z,7.95
2023-09-06T23:26:19.612Z,8.65
2023-09-06T23:28:49.802Z,8.63
2023-09-06T23:31:21.093Z,9.10
2023-09-06T23:33:49.388Z,9.10
2023-09-06T23:36:20.259Z,8.75
2023-09-06T23:38:49.907Z,8.50
2023-09-06T23:41:19.231Z,8.90
2023-09-06T23:43:48.380Z,8.65
2023-09-06T23:46:18.302Z,8.50
2023-09-06T23:48:46.445Z,8.45
2023-09-06T23:51:14.648Z,8.55
2023-09-06T23:53:44.700Z,8.07
2023-09-06T23:56:13.019Z,8.55
2023-09-06T23:58:41.468Z,8.93
